Map

Track Data

SID SEASON NUMBER BASIN SUBBASIN NAME ISO_TIME NATURE LAT LON WMO_WIND WMO_PRES WMO_AGENCY TRACK_TYPE DIST2LAND LANDFALL IFLAG USA_AGENCY USA_ATCF_ID USA_LAT USA_LON USA_RECORD USA_STATUS USA_WIND USA_PRES USA_SSHS USA_R34_NE USA_R34_SE USA_R34_SW USA_R34_NW USA_R50_NE USA_R50_SE USA_R50_SW USA_R50_NW USA_R64_NE USA_R64_SE USA_R64_SW USA_R64_NW USA_POCI USA_ROCI USA_RMW USA_EYE TOKYO_LAT TOKYO_LON TOKYO_GRADE TOKYO_WIND TOKYO_PRES TOKYO_R50_DIR TOKYO_R50_LONG TOKYO_R50_SHORT TOKYO_R30_DIR TOKYO_R30_LONG TOKYO_R30_SHORT TOKYO_LAND CMA_LAT CMA_LON CMA_CAT CMA_WIND CMA_PRES HKO_LAT HKO_LON HKO_CAT HKO_WIND HKO_PRES NEWDELHI_LAT NEWDELHI_LON NEWDELHI_GRADE NEWDELHI_WIND NEWDELHI_PRES NEWDELHI_CI NEWDELHI_DP NEWDELHI_POCI REUNION_LAT REUNION_LON REUNION_TYPE REUNION_WIND REUNION_PRES REUNION_TNUM REUNION_CI REUNION_RMW REUNION_R34_NE REUNION_R34_SE REUNION_R34_SW REUNION_R34_NW REUNION_R50_NE REUNION_R50_SE REUNION_R50_SW REUNION_R50_NW REUNION_R64_NE REUNION_R64_SE REUNION_R64_SW REUNION_R64_NW BOM_LAT BOM_LON BOM_TYPE BOM_WIND BOM_PRES BOM_TNUM BOM_CI BOM_RMW BOM_R34_NE BOM_R34_SE BOM_R34_SW BOM_R34_NW BOM_R50_NE BOM_R50_SE BOM_R50_SW BOM_R50_NW BOM_R64_NE BOM_R64_SE BOM_R64_SW BOM_R64_NW BOM_ROCI BOM_POCI BOM_EYE BOM_POS_METHOD BOM_PRES_METHOD NADI_LAT NADI_LON NADI_CAT NADI_WIND NADI_PRES WELLINGTON_LAT WELLINGTON_LON WELLINGTON_WIND WELLINGTON_PRES DS824_LAT DS824_LON DS824_STAGE DS824_WIND DS824_PRES TD9636_LAT TD9636_LON TD9636_STAGE TD9636_WIND TD9636_PRES TD9635_LAT TD9635_LON TD9635_WIND TD9635_PRES TD9635_ROCI NEUMANN_LAT NEUMANN_LON NEUMANN_CLASS NEUMANN_WIND NEUMANN_PRES MLC_LAT MLC_LON MLC_CLASS MLC_WIND MLC_PRES USA_GUST BOM_GUST BOM_GUST_PER REUNION_GUST REUNION_GUST_PER USA_SEAHGT USA_SEARAD_NE USA_SEARAD_SE USA_SEARAD_SW USA_SEARAD_NW STORM_SPEED STORM_DIR
1894151N16112 1894 19 WP MM NOT_NAMED 1894-05-30 16:00:00 NR 16.4000 112.400 main 333 254 __________O___ -1 16.4000 112.400 7 23 328
1894151N16112 1894 19 WP MM NOT_NAMED 1894-05-30 18:00:00 NR 17.0422 111.987 main 254 130 __________P___ -1 17.0422 111.987 7 22 329
1894151N16112 1894 19 WP MM NOT_NAMED 1894-05-30 21:00:00 NR 17.9828 111.394 main 130 33 __________P___ -1 17.9828 111.394 7 21 330
1894151N16112 1894 19 WP MM NOT_NAMED 1894-05-31 00:00:00 NR 18.8665 110.878 main 33 0 __________P___ -1 18.8665 110.878 7 19 333
1894151N16112 1894 19 WP MM NOT_NAMED 1894-05-31 03:00:00 NR 19.6607 110.491 main 0 0 __________P___ -1 19.6607 110.491 7 17 337
1894151N16112 1894 19 WP MM NOT_NAMED 1894-05-31 04:00:00 NR 19.9000 110.400 main 0 0 __________O___ -1 19.9000 110.400 4 14 344
1894151N16112 1894 19 WP MM NOT_NAMED 1894-05-31 06:00:00 NR 20.3363 110.282 main 0 0 __________P___ -1 20.3363 110.282 4 12 352
1894151N16112 1894 19 WP MM NOT_NAMED 1894-05-31 09:00:00 NR 20.8975 110.245 main 0 0 __________P___ -1 20.8975 110.245 4 10 3
1894151N16112 1894 19 WP MM NOT_NAMED 1894-05-31 12:00:00 NR 21.3689 110.340 main 0 0 __________P___ -1 21.3689 110.340 4 9 17
1894151N16112 1894 19 WP MM NOT_NAMED 1894-05-31 15:00:00 NR 21.7749 110.526 main 0 0 __________P___ -1 21.7749 110.526 4 9 24
1894151N16112 1894 19 WP MM NOT_NAMED 1894-05-31 16:00:00 NR 21.9000 110.600 main 0 0 __________O___ -1 21.9000 110.600 4 8 24
1894151N16112 1894 19 WP MM NOT_NAMED 1894-05-31 18:00:00 NR 22.1511 110.706 main 0 0 __________P___ -1 22.1511 110.706 4 8 27
1894151N16112 1894 19 WP MM NOT_NAMED 1894-05-31 21:00:00 NR 22.4835 110.922 main 0 0 __________P___ -1 22.4835 110.922 4 8 36
1894151N16112 1894 19 WP MM NOT_NAMED 1894-06-01 00:00:00 NR 22.7881 111.207 main 0 0 __________P___ -1 22.7881 111.207 4 9 44
1894151N16112 1894 19 WP MM NOT_NAMED 1894-06-01 03:00:00 NR 23.0933 111.564 main 0 0 __________P___ -1 23.0933 111.564 4 9 48
1894151N16112 1894 19 WP MM NOT_NAMED 1894-06-01 04:00:00 NR 23.2000 111.700 main 0 0 __________O___ -1 23.2000 111.700 4 11 47
1894151N16112 1894 19 WP MM NOT_NAMED 1894-06-01 06:00:00 NR 23.4572 111.990 main 0 0 __________P___ -1 23.4572 111.990 4 12 48
1894151N16112 1894 19 WP MM NOT_NAMED 1894-06-01 09:00:00 NR 23.8558 112.487 main 0 0 __________P___ -1 23.8558 112.487 4 12 51
1894151N16112 1894 19 WP MM NOT_NAMED 1894-06-01 12:00:00 NR 24.2447 113.037 main 0 0 __________P___ -1 24.2447 113.037 4 13 54
1894151N16112 1894 19 WP MM NOT_NAMED 1894-06-01 15:00:00 NR 24.5960 113.609 main 0 0 __________P___ -1 24.5960 113.609 4 12 57
1894151N16112 1894 19 WP MM NOT_NAMED 1894-06-01 16:00:00 NR 24.7000 113.800 main 0 0 __________O___ -1 24.7000 113.800 4 12 61
1894151N16112 1894 19 WP MM NOT_NAMED 1894-06-01 18:00:00 NR 24.8844 114.177 main 0 0 __________P___ -1 24.8844 114.177 4 11 64
1894151N16112 1894 19 WP MM NOT_NAMED 1894-06-01 21:00:00 NR 25.1110 114.733 main 0 0 __________P___ -1 25.1110 114.733 4 11 68
1894151N16112 1894 19 WP MM NOT_NAMED 1894-06-02 00:00:00 NR 25.2937 115.279 main 0 0 __________P___ -1 25.2937 115.279 4 10 71
1894151N16112 1894 19 WP MM NOT_NAMED 1894-06-02 03:00:00 NR 25.4504 115.820 main 0 0 __________P___ -1 25.4504 115.820 4 10 72
1894151N16112 1894 19 WP MM NOT_NAMED 1894-06-02 04:00:00 NR 25.5000 116.000 main 0 __________O___ -1 25.5000 116.000 7 10 73

Digital Typhoon Data and Search

About IBTrACS Database

This database is a web-friendly format of International Best Track Archive for Climate Stewardship (IBTrACS), a global best track data archive curated by NOAA dating back to 1842.

Updated: 2021-12-01